Time;durP1;ratioP1;P1;durP2;ratioP2;P2;SDS_P1;SDS_P2;PMS_P1;PMS_P2;Temp;Humidity;BMP_temperature;BMP_pressure;BME280_temperature;BME280_humidity;BME280_pressure;Samples;Min_cycle;Max_cycle;Signal;HPM_P1;HPM_P2
2022/07/25 00:01:54;;;;;;;0.40;0.40;;;20.90;57.70;;;21.37;42.88;95171.75;5014067;28;20232;-77
2022/07/25 00:04:23;;;;;;;0.40;0.40;;;20.80;57.70;;;21.32;42.98;95172.50;5007499;28;20651;-78
2022/07/25 00:06:50;;;;;;;0.40;0.40;;;20.80;57.80;;;21.29;43.29;95165.03;4982992;28;20254;-77
2022/07/25 00:09:18;;;;;;;0.40;0.40;;;20.80;58.00;;;21.25;43.15;95161.22;4995468;28;20303;-78
2022/07/25 00:11:45;;;;;;;0.40;0.40;;;20.70;58.00;;;21.21;43.90;95160.94;4994263;28;20232;-77
2022/07/25 00:14:12;;;;;;;0.40;0.40;;;20.70;58.30;;;21.18;43.36;95149.97;4998321;28;20205;-77
2022/07/25 00:16:39;;;;;;;0.30;0.30;;;20.70;58.50;;;21.10;43.58;95145.91;5011860;28;20220;-77
2022/07/25 00:19:07;;;;;;;0.43;0.43;;;20.60;58.40;;;21.07;43.80;95146.41;5010786;28;20279;-78
2022/07/25 00:21:34;;;;;;;0.38;0.38;;;20.60;58.40;;;21.05;43.76;95149.31;5010128;28;20216;-77
2022/07/25 00:24:01;;;;;;;0.40;0.40;;;20.60;58.50;;;21.04;43.30;95149.56;5026819;28;20208;-77
2022/07/25 00:26:29;;;;;;;0.40;0.40;;;20.60;58.60;;;20.98;44.17;95137.25;5028048;28;20234;-77
2022/07/25 00:28:56;;;;;;;0.40;0.40;;;20.50;58.80;;;20.95;43.50;95142.03;5017427;28;20196;-78
2022/07/25 00:31:23;;;;;;;0.40;0.40;;;20.50;58.70;;;20.96;44.04;95140.19;4999681;28;20224;-77
2022/07/25 00:33:50;;;;;;;0.40;0.40;;;20.40;58.70;;;20.95;43.98;95135.91;5024017;28;20216;-77
2022/07/25 00:36:18;;;;;;;0.47;0.47;;;20.40;58.80;;;20.94;44.00;95137.75;5013538;28;20221;-77
2022/07/25 00:38:45;;;;;;;0.40;0.40;;;20.40;58.90;;;20.93;43.67;95130.81;5014184;28;20208;-78
2022/07/25 00:41:12;;;;;;;0.32;0.32;;;20.40;58.90;;;20.92;44.03;95126.53;5013661;28;20291;-77
2022/07/25 00:43:43;;;;;;;0.38;0.38;;;20.30;59.00;;;20.90;44.26;95128.66;5014766;28;20193;-77
2022/07/25 00:46:17;;;;;;;0.40;0.40;;;20.30;59.40;;;20.89;43.76;95126.25;5030632;28;20242;-78
2022/07/25 00:48:47;;;;;;;0.40;0.40;;;20.30;59.50;;;20.87;43.68;95125.69;5014236;28;20188;-78
2022/07/25 00:51:15;;;;;;;0.40;0.40;;;20.30;59.10;;;20.86;43.86;95124.06;5022612;28;20220;-77
2022/07/25 00:53:44;;;;;;;0.38;0.38;;;20.30;59.10;;;20.79;44.19;95122.41;5013398;28;20509;-77
2022/07/25 00:56:11;;;;;;;0.47;0.47;;;20.30;59.30;;;20.79;43.88;95121.63;5000075;28;20218;-78
2022/07/25 00:58:39;;;;;;;0.47;0.47;;;20.20;59.10;;;20.77;43.88;95127.19;5029806;28;20205;-78
2022/07/25 01:01:07;;;;;;;0.30;0.30;;;20.20;59.20;;;20.73;44.38;95111.97;4997232;28;20236;-77
2022/07/25 01:03:34;;;;;;;0.40;0.40;;;20.20;59.20;;;20.68;44.32;95119.84;5015109;28;20730;-77
2022/07/25 01:06:02;;;;;;;0.52;0.52;;;20.20;59.30;;;20.66;44.10;95112.09;5017081;28;20212;-78
2022/07/25 01:08:29;;;;;;;0.50;0.50;;;20.10;59.40;;;20.62;44.43;95119.00;5033638;28;20199;-78
2022/07/25 01:10:57;;;;;;;0.40;0.40;;;20.00;59.40;;;20.59;44.61;95119.50;5012591;28;20217;-77
2022/07/25 01:13:24;;;;;;;0.40;0.40;;;20.10;59.60;;;20.55;44.69;95113.84;5014612;28;20200;-78
2022/07/25 01:15:51;;;;;;;0.40;0.40;;;20.10;59.80;;;20.54;44.47;95114.13;5029631;28;20213;-77
2022/07/25 01:18:18;;;;;;;0.40;0.40;;;20.00;59.80;;;20.51;44.38;95118.09;5016657;28;20196;-77
2022/07/25 01:20:46;;;;;;;0.50;0.50;;;19.90;59.80;;;20.46;44.42;95110.84;5028687;28;20411;-78
2022/07/25 01:23:14;;;;;;;0.50;0.50;;;19.90;59.90;;;20.43;44.70;95107.84;5014899;28;20553;-77
2022/07/25 01:25:41;;;;;;;0.40;0.40;;;19.90;59.90;;;20.38;45.15;95108.59;5006577;28;20219;-77
2022/07/25 01:28:08;;;;;;;0.40;0.40;;;19.80;60.00;;;20.37;44.84;95108.84;5013101;28;20213;-77
2022/07/25 01:30:36;;;;;;;0.43;0.43;;;19.80;60.00;;;20.26;45.00;95095.44;5032595;28;20612;-77
2022/07/25 01:33:03;;;;;;;0.40;0.40;;;19.80;60.00;;;20.30;44.89;95103.72;5015626;28;20215;-77
2022/07/25 01:35:33;;;;;;;0.40;0.40;;;19.80;60.10;;;20.23;45.03;95101.25;4997129;28;20564;-77
2022/07/25 01:38:06;;;;;;;0.43;0.43;;;19.80;60.20;;;20.24;45.21;95102.84;5012851;28;20207;-77
2022/07/25 01:40:33;;;;;;;0.40;0.40;;;19.70;60.30;;;20.22;45.11;95104.16;4996466;28;20240;-77
2022/07/25 01:43:00;;;;;;;0.40;0.40;;;19.70;60.30;;;20.20;44.73;95103.59;4996920;28;20706;-77
2022/07/25 01:45:27;;;;;;;0.50;0.50;;;19.70;60.30;;;20.18;44.84;95101.19;4996318;28;20228;-77
2022/07/25 01:47:55;;;;;;;0.50;0.50;;;19.70;60.40;;;20.14;45.30;95100.06;5011411;28;20188;-77
2022/07/25 01:50:22;;;;;;;0.40;0.40;;;19.60;60.50;;;20.12;45.49;95100.31;4996376;28;20269;-77
2022/07/25 01:52:50;;;;;;;0.45;0.45;;;19.60;60.50;;;20.05;45.49;95091.69;5031337;28;20473;-78
2022/07/25 01:55:18;;;;;;;0.40;0.40;;;19.60;60.50;;;20.05;45.31;95094.34;5031495;28;20188;-77
2022/07/25 01:57:46;;;;;;;0.50;0.50;;;19.50;60.50;;;19.99;45.41;95093.50;4996502;28;20200;-77
2022/07/25 02:00:16;;;;;;;0.57;0.57;;;19.60;60.60;;;19.97;45.39;95092.94;5026821;28;20192;-77
2022/07/25 02:02:44;;;;;;;0.50;0.50;;;19.50;60.70;;;19.92;45.24;95094.72;5014030;28;20204;-78
2022/07/25 02:05:13;;;;;;;0.50;0.50;;;19.40;60.80;;;19.86;45.71;95101.84;4999684;28;20211;-77
2022/07/25 02:07:41;;;;;;;0.50;0.50;;;19.40;60.90;;;19.84;45.57;95103.94;5010283;28;20292;-77
2022/07/25 02:10:08;;;;;;;0.40;0.40;;;19.40;60.90;;;19.78;45.84;95099.56;5003971;28;20208;-78
2022/07/25 02:12:36;;;;;;;0.50;0.50;;;19.30;60.90;;;19.76;45.94;95097.16;5014302;28;20197;-77
2022/07/25 02:15:03;;;;;;;0.50;0.50;;;19.30;61.00;;;19.73;46.03;95100.31;4996719;28;20578;-77
2022/07/25 02:17:30;;;;;;;0.50;0.50;;;19.20;61.10;;;19.71;45.88;95093.63;5023771;28;20262;-77
2022/07/25 02:19:57;;;;;;;0.40;0.40;;;19.20;61.10;;;19.64;45.89;95091.94;5022082;28;20279;-78
2022/07/25 02:22:24;;;;;;;0.40;0.40;;;19.20;61.10;;;19.60;46.43;95084.69;5028297;28;20240;-77
2022/07/25 02:24:51;;;;;;;0.50;0.50;;;19.10;61.20;;;19.58;46.39;95089.44;5015339;28;20212;-78
2022/07/25 02:27:18;;;;;;;0.52;0.52;;;19.10;61.10;;;19.55;46.30;95085.41;5013178;28;20216;-77
2022/07/25 02:29:46;;;;;;;0.50;0.50;;;19.10;61.30;;;19.53;46.38;95087.53;5001972;28;20208;-77
2022/07/25 02:32:13;;;;;;;0.47;0.47;;;19.10;61.40;;;19.49;46.02;95083.72;5029812;28;20212;-77
2022/07/25 02:34:40;;;;;;;0.40;0.40;;;19.10;61.60;;;19.47;46.14;95083.97;5012279;28;20215;-78
2022/07/25 02:37:07;;;;;;;0.57;0.57;;;19.00;61.40;;;19.45;46.78;95074.63;4995934;28;20254;-77
2022/07/25 02:39:34;;;;;;;0.50;0.50;;;19.00;61.60;;;19.40;46.60;95077.22;5006697;28;20209;-77
2022/07/25 02:42:01;;;;;;;0.40;0.40;;;18.90;61.50;;;19.38;47.05;95077.44;5014149;28;20232;-77
2022/07/25 02:44:29;;;;;;;0.40;0.40;;;18.90;61.70;;;19.33;46.40;95069.38;4998364;28;20662;-77
2022/07/25 02:46:56;;;;;;;0.45;0.45;;;18.80;61.70;;;19.32;46.84;95075.75;5019586;28;20225;-77
2022/07/25 02:49:23;;;;;;;0.50;0.50;;;18.80;61.80;;;19.28;46.99;95075.44;5011520;28;20196;-78
2022/07/25 02:51:51;;;;;;;0.40;0.40;;;18.80;62.80;;;19.27;46.70;95078.34;5002180;28;20221;-78
2022/07/25 02:54:18;;;;;;;0.45;0.45;;;18.80;61.90;;;19.24;46.61;95076.16;5012575;28;20794;-78
2022/07/25 02:56:46;;;;;;;0.50;0.50;;;18.80;62.00;;;19.20;47.23;95073.19;4996548;28;20221;-76
2022/07/25 02:59:13;;;;;;;0.50;0.50;;;18.70;61.90;;;19.18;47.16;95072.63;5004557;28;20647;-77
2022/07/25 03:01:40;;;;;;;0.57;0.57;;;18.70;62.00;;;19.15;47.13;95073.09;5018461;28;20204;-77
2022/07/25 03:04:07;;;;;;;0.30;0.30;;;18.70;62.40;;;19.10;47.11;95062.38;5019883;28;20196;-78
2022/07/25 03:06:35;;;;;;;0.50;0.50;;;18.70;62.40;;;19.05;47.26;95057.78;5018931;28;20217;-77
2022/07/25 03:09:03;;;;;;;0.50;0.50;;;18.60;62.40;;;19.02;47.31;95056.44;5019844;28;20197;-77
2022/07/25 03:11:30;;;;;;;0.50;0.50;;;18.60;62.40;;;19.02;47.13;95060.94;5005201;28;20599;-77
2022/07/25 03:13:57;;;;;;;0.50;0.50;;;18.60;62.40;;;18.96;47.42;95052.06;5020774;28;20204;-77
2022/07/25 03:16:25;;;;;;;0.50;0.50;;;18.60;62.30;;;18.95;47.29;95058.44;5001194;28;21908;-77
2022/07/25 03:18:52;;;;;;;0.50;0.50;;;18.50;62.30;;;18.87;47.59;95048.16;5020114;28;20200;-78
2022/07/25 03:21:19;;;;;;;0.50;0.50;;;18.50;63.20;;;18.92;47.65;95060.75;5007261;28;20593;-78
2022/07/25 03:23:46;;;;;;;0.50;0.50;;;18.50;62.30;;;18.86;47.78;95058.00;5004134;28;20196;-77
2022/07/25 03:26:19;;;;;;;0.50;0.50;;;18.40;62.20;;;18.86;47.66;95063.31;5003062;28;20234;-77
2022/07/25 03:28:46;;;;;;;0.50;0.50;;;18.40;62.20;;;18.85;47.68;95060.91;5014340;28;20208;-78
2022/07/25 03:31:13;;;;;;;0.50;0.50;;;18.40;62.30;;;18.79;47.53;95044.06;5010164;28;20223;-77
2022/07/25 03:33:41;;;;;;;0.50;0.50;;;18.40;62.20;;;18.81;47.89;95051.78;5004854;28;21396;-77
2022/07/25 03:36:09;;;;;;;0.50;0.50;;;18.40;62.20;;;18.80;47.76;95052.84;5019272;28;20295;-77
2022/07/25 03:38:36;;;;;;;0.50;0.50;;;18.30;62.20;;;18.80;47.78;95055.50;5016096;28;20655;-77
2022/07/25 03:41:04;;;;;;;0.50;0.50;;;18.30;62.20;;;18.80;47.92;95050.19;5017731;28;20224;-77
2022/07/25 03:43:31;;;;;;;0.50;0.50;;;18.30;62.40;;;18.79;48.13;95049.38;5002774;28;20666;-77
2022/07/25 03:45:58;;;;;;;0.50;0.50;;;18.30;62.40;;;18.80;47.97;95052.84;5008502;28;20224;-77
2022/07/25 03:48:26;;;;;;;0.45;0.45;;;18.30;62.70;;;18.81;48.07;95049.13;5007271;28;20298;-77
2022/07/25 03:50:56;;;;;;;0.50;0.50;;;18.30;62.80;;;18.79;48.57;95049.38;5011391;28;20308;-77
2022/07/25 03:53:23;;;;;;;0.50;0.50;;;18.30;63.10;;;18.82;48.17;95050.75;5005148;28;20207;-77
2022/07/25 03:55:50;;;;;;;0.50;0.50;;;18.30;62.80;;;18.85;48.50;95050.28;5026520;28;20225;-78
2022/07/25 03:58:18;;;;;;;0.50;0.50;;;18.30;63.00;;;18.83;48.65;95044.38;5003423;28;20205;-78
2022/07/25 04:00:47;;;;;;;0.40;0.40;;;18.40;63.00;;;18.88;48.34;95044.47;5024967;28;20221;-78
2022/07/25 04:03:14;;;;;;;0.40;0.40;;;18.40;63.10;;;18.93;48.45;95046.44;5012754;28;20203;-78
2022/07/25 04:05:41;;;;;;;0.50;0.50;;;18.40;63.00;;;18.94;48.62;95040.88;4996202;28;20694;-77
2022/07/25 04:08:13;;;;;;;0.40;0.40;;;18.50;63.10;;;18.98;49.00;95044.69;5028162;28;20196;-75
2022/07/25 04:10:41;;;;;;;0.50;0.50;;;18.50;63.20;;;19.04;48.36;95037.56;5012836;28;20213;-77
2022/07/25 04:13:08;;;;;;;0.50;0.50;;;18.50;63.30;;;19.08;48.69;95037.88;4997954;28;20633;-77
2022/07/25 04:15:35;;;;;;;0.50;0.50;;;18.60;63.40;;;19.13;49.06;95040.66;4983911;28;20307;-77
2022/07/25 04:18:04;;;;;;;0.45;0.45;;;18.60;63.50;;;19.17;49.04;95036.44;5023315;28;20575;-78
2022/07/25 04:20:36;;;;;;;0.40;0.40;;;18.70;63.50;;;19.22;49.00;95036.50;5031078;28;20568;-77
2022/07/25 04:23:03;;;;;;;0.50;0.50;;;18.70;63.50;;;19.27;49.25;95035.78;5034434;28;20270;-78
2022/07/25 04:25:30;;;;;;;0.50;0.50;;;18.80;63.60;;;19.33;49.28;95038.31;5017093;28;20207;-77
2022/07/25 04:27:57;;;;;;;0.43;0.43;;;18.80;63.70;;;19.38;49.24;95034.09;5011905;28;20694;-77
2022/07/25 04:30:24;;;;;;;0.40;0.40;;;18.90;63.60;;;19.43;49.12;95029.66;5005299;28;20232;-77
2022/07/25 04:32:52;;;;;;;0.40;0.40;;;18.90;63.50;;;19.49;49.00;95026.03;4997984;28;20668;-77
2022/07/25 04:35:19;;;;;;;0.40;0.40;;;19.00;63.70;;;19.54;48.80;95032.44;4997955;28;20200;-77
2022/07/25 04:37:47;;;;;;;0.50;0.50;;;19.10;63.80;;;19.60;49.01;95026.94;4995680;28;20205;-78
2022/07/25 04:40:14;;;;;;;0.60;0.60;;;19.10;63.70;;;19.67;49.30;95024.13;5013970;28;20208;-77
2022/07/25 04:42:42;;;;;;;0.40;0.40;;;19.20;63.60;;;19.75;48.84;95025.53;4997845;28;20236;-77
2022/07/25 04:45:09;;;;;;;0.50;0.50;;;19.30;63.70;;;19.82;49.08;95026.16;4998774;28;20196;-77
2022/07/25 04:47:37;;;;;;;0.40;0.40;;;19.30;63.70;;;19.88;49.08;95027.06;4997181;28;20232;-77
2022/07/25 04:50:05;;;;;;;0.40;0.40;;;19.40;63.70;;;19.95;48.84;95030.34;5033311;28;20203;-78
2022/07/25 04:52:32;;;;;;;0.40;0.40;;;19.40;63.60;;;20.03;48.88;95021.94;5017259;28;20561;-77
2022/07/25 04:54:59;;;;;;;0.50;0.50;;;19.60;63.60;;;20.11;49.11;95023.34;5027515;28;20193;-78
2022/07/25 04:57:26;;;;;;;0.40;0.40;;;19.60;63.60;;;20.18;49.08;95018.63;5013652;28;20216;-78
2022/07/25 04:59:53;;;;;;;0.40;0.40;;;19.70;63.60;;;20.26;49.10;95015.53;5013720;28;20189;-78
2022/07/25 05:02:20;;;;;;;0.40;0.40;;;19.80;63.40;;;20.32;48.79;95013.69;4997377;28;20265;-78
2022/07/25 05:04:47;;;;;;;0.40;0.40;;;19.90;63.40;;;20.42;48.97;95013.81;5015202;28;20239;-77
2022/07/25 05:07:18;;;;;;;0.40;0.40;;;19.90;63.40;;;20.50;48.90;95011.75;5028500;28;20631;-78
2022/07/25 05:09:46;;;;;;;0.32;0.32;;;20.00;63.50;;;20.59;48.93;95003.06;5016267;28;20250;-77
2022/07/25 05:12:13;;;;;;;0.40;0.40;;;20.10;64.00;;;20.68;48.36;95003.41;5015774;28;20222;-77
2022/07/25 05:14:40;;;;;;;0.40;0.40;;;20.20;63.60;;;20.77;48.73;94993.91;5031041;28;20659;-77
2022/07/25 05:17:07;;;;;;;0.40;0.40;;;20.30;63.70;;;20.88;48.76;94997.44;5016812;28;20224;-78
2022/07/25 05:19:34;;;;;;;0.40;0.40;;;20.40;63.80;;;20.98;48.86;94991.38;5032856;28;20432;-77
2022/07/25 05:22:02;;;;;;;0.40;0.40;;;20.50;63.40;;;21.08;48.15;94988.00;5010405;28;20319;-77
2022/07/25 05:24:35;;;;;;;0.40;0.40;;;20.60;63.40;;;21.19;47.84;94986.19;4996894;28;20209;-77
2022/07/25 05:27:03;;;;;;;0.40;0.40;;;20.70;63.10;;;21.28;48.11;94988.13;5013307;28;20240;-77
2022/07/25 05:29:31;;;;;;;0.40;0.40;;;20.70;63.00;;;21.39;47.82;94990.88;5015071;28;20198;-77
2022/07/25 05:31:58;;;;;;;0.40;0.40;;;20.90;62.80;;;21.48;47.76;94985.84;4996793;28;20633;-78
2022/07/25 05:34:25;;;;;;;0.40;0.40;;;21.00;62.80;;;21.57;47.55;94987.00;4997077;28;20212;-78
2022/07/25 05:36:53;;;;;;;0.40;0.40;;;21.10;62.80;;;21.68;47.48;94979.81;4996634;28;20322;-78
2022/07/25 05:39:20;;;;;;;0.40;0.40;;;21.20;62.70;;;21.76;47.33;94976.66;4996822;28;20204;-77
2022/07/25 05:41:47;;;;;;;0.40;0.40;;;21.30;62.50;;;21.84;47.34;94972.69;5013122;28;20233;-78
2022/07/25 05:44:14;;;;;;;0.40;0.40;;;21.40;62.50;;;21.95;47.38;94971.66;5016220;28;20573;-78
2022/07/25 05:46:41;;;;;;;0.40;0.40;;;21.50;63.40;;;22.04;46.98;94974.63;4998065;28;20233;-77
2022/07/25 05:49:08;;;;;;;0.30;0.30;;;21.50;62.20;;;22.12;47.00;94970.63;5019818;28;20209;-78
2022/07/25 05:51:35;;;;;;;0.40;0.40;;;21.60;62.10;;;22.20;46.80;94978.97;5012833;28;20229;-78
2022/07/25 05:54:03;;;;;;;0.43;0.43;;;21.70;62.10;;;22.28;46.99;94976.84;5012741;28;20200;-77
2022/07/25 05:56:30;;;;;;;0.40;0.40;;;21.80;61.90;;;22.37;46.67;94980.56;5020885;28;20221;-77
2022/07/25 05:58:58;;;;;;;0.40;0.40;;;21.90;61.80;;;22.43;46.53;94981.44;4997201;28;20562;-78
2022/07/25 06:01:25;;;;;;;0.40;0.40;;;22.00;61.80;;;22.51;46.59;94979.03;5011762;28;20705;-78
2022/07/25 06:03:52;;;;;;;0.30;0.30;;;22.10;61.70;;;22.59;46.65;94982.25;5012070;28;20396;-78
2022/07/25 06:06:19;;;;;;;0.40;0.40;;;22.10;61.70;;;22.69;46.13;94988.41;5007125;28;20658;-78
2022/07/25 06:08:46;;;;;;;0.40;0.40;;;22.20;61.40;;;22.78;45.81;94977.19;5030391;28;20199;-78
2022/07/25 06:11:13;;;;;;;0.60;0.60;;;22.30;61.30;;;22.85;45.89;94977.69;5015745;28;20235;-78
2022/07/25 06:13:40;;;;;;;0.40;0.40;;;22.40;61.30;;;22.93;46.11;94979.84;5032104;28;20574;-77
2022/07/25 06:16:07;;;;;;;0.45;0.45;;;22.50;61.40;;;23.01;45.83;94983.88;5015251;28;20234;-77
2022/07/25 06:18:34;;;;;;;0.32;0.32;;;22.60;61.30;;;23.07;45.54;94979.28;4993702;28;20225;-78
2022/07/25 06:21:02;;;;;;;0.35;0.35;;;22.60;61.20;;;23.18;45.61;94978.25;5010171;28;20592;-78
2022/07/25 06:23:30;;;;;;;0.30;0.30;;;22.70;61.30;;;23.25;46.05;94984.09;5010023;28;20235;-77
2022/07/25 06:25:58;;;;;;;0.40;0.40;;;22.80;61.30;;;23.34;45.43;94973.69;5002023;28;20603;-77
2022/07/25 06:28:25;;;;;;;0.32;0.32;;;22.90;61.30;;;23.43;45.57;94976.59;4996643;28;20657;-78
2022/07/25 06:30:52;;;;;;;0.40;0.40;;;23.00;61.30;;;23.52;45.62;94968.81;5013609;28;20223;-78
2022/07/25 06:33:20;;;;;;;0.50;0.50;;;23.10;61.10;;;23.61;45.41;94964.50;5012569;28;20233;-78
2022/07/25 06:35:48;;;;;;;0.30;0.30;;;23.10;61.00;;;23.71;45.64;94969.03;5030261;28;20235;-78
2022/07/25 06:38:15;;;;;;;0.30;0.30;;;23.30;61.10;;;23.78;45.61;94962.28;5010368;28;20214;-78
2022/07/25 06:40:43;;;;;;;0.50;0.50;;;23.30;61.10;;;23.86;45.19;94958.22;5027359;28;20725;-78
2022/07/25 06:43:10;;;;;;;0.30;0.30;;;23.40;60.90;;;23.99;45.20;94956.88;5029176;28;20745;-76
2022/07/25 06:45:37;;;;;;;0.30;0.30;;;23.50;60.90;;;24.10;45.05;94947.69;5026549;28;20320;-78
2022/07/25 06:48:04;;;;;;;0.30;0.30;;;23.60;60.60;;;24.21;44.92;94947.66;5003032;28;20204;-77
2022/07/25 06:50:32;;;;;;;0.32;0.32;;;23.70;60.80;;;24.34;45.10;94946.22;5025886;28;20246;-78
2022/07/25 06:52:59;;;;;;;0.30;0.30;;;23.80;60.70;;;24.46;44.90;94942.13;5011597;28;20288;-78
2022/07/25 06:55:26;;;;;;;0.30;0.30;;;24.00;60.70;;;24.59;44.72;94945.22;4980485;28;20208;-78
2022/07/25 06:57:53;;;;;;;0.40;0.40;;;24.10;60.50;;;24.70;44.35;94935.25;4980908;28;20207;-78
2022/07/25 07:00:20;;;;;;;0.30;0.30;;;24.20;60.30;;;24.83;44.45;94936.47;5011640;28;20196;-79
2022/07/25 07:02:54;;;;;;;0.30;0.30;;;24.30;60.20;;;24.94;43.85;94924.59;4995305;28;20693;-78
2022/07/25 07:05:26;;;;;;;0.30;0.30;;;24.40;59.80;;;25.06;43.72;94938.44;4996024;28;20181;-79
2022/07/25 07:07:54;;;;;;;0.30;0.30;;;24.50;59.70;;;25.17;43.98;94923.03;4989879;28;20644;-79
2022/07/25 07:10:22;;;;;;;0.40;0.40;;;24.70;59.50;;;25.29;43.32;94932.56;5014723;28;20199;-79
2022/07/25 07:12:49;;;;;;;0.40;0.40;;;24.80;59.30;;;25.38;43.35;94920.94;5014092;28;20278;-78
2022/07/25 07:15:17;;;;;;;0.50;0.50;;;24.90;59.20;;;25.51;43.34;94927.53;5021581;28;20200;-79
2022/07/25 07:17:44;;;;;;;0.35;0.35;;;25.00;58.90;;;25.61;43.04;94929.28;5011681;28;20364;-78
2022/07/25 07:20:11;;;;;;;0.50;0.50;;;25.10;58.90;;;25.71;42.79;94923.78;5006958;28;20206;-79
2022/07/25 07:22:48;;;;;;;0.30;0.30;;;25.20;58.80;;;25.85;42.49;94923.06;4998933;28;20596;-80
2022/07/25 07:25:18;;;;;;;0.30;0.30;;;25.40;58.50;;;25.93;42.27;94918.94;4994837;28;20597;-79
2022/07/25 07:27:46;;;;;;;0.30;0.30;;;25.50;58.10;;;26.02;41.98;94926.09;5019384;28;20735;-79
2022/07/25 07:30:13;;;;;;;0.30;0.30;;;25.60;57.90;;;26.11;41.55;94915.50;5014160;28;20665;-79
2022/07/25 07:32:42;;;;;;;0.30;0.30;;;25.70;58.60;;;26.21;41.54;94917.25;4998062;28;20210;-80
2022/07/25 07:35:11;;;;;;;0.50;0.50;;;25.80;57.30;;;26.30;41.31;94912.78;5030938;28;20190;-79
2022/07/25 07:37:38;;;;;;;0.40;0.40;;;25.80;56.70;;;26.40;40.34;94919.13;5022601;28;20212;-79
2022/07/25 07:40:12;;;;;;;0.30;0.30;;;26.00;55.90;;;26.49;40.17;94910.09;5030340;28;20722;-80
2022/07/25 07:42:48;;;;;;;0.30;0.30;;;26.10;55.50;;;26.61;39.90;94914.22;5015997;28;20229;-81
2022/07/25 07:45:22;;;;;;;0.30;0.30;;;26.10;55.30;;;26.68;39.85;94907.38;5043361;28;20225;-79
2022/07/25 07:47:52;;;;;;;0.30;0.30;;;26.20;54.80;;;26.76;39.72;94907.84;5022855;28;20641;-79
2022/07/25 07:50:26;;;;;;;0.30;0.30;;;26.30;54.90;;;26.83;39.54;94906.34;4990141;28;20277;-79
2022/07/25 07:52:55;;;;;;;0.30;0.30;;;26.40;54.50;;;26.92;38.88;94905.69;5000591;28;20563;-80
2022/07/25 07:58:09;;;;;;;0.32;0.32;;;26.50;54.10;;;27.06;38.47;94903.81;5034088;28;20257;-77
2022/07/25 08:00:40;;;;;;;0.30;0.30;;;26.60;53.80;;;27.15;38.41;94896.63;5016249;28;20216;-78
2022/07/25 08:03:08;;;;;;;0.30;0.30;;;26.70;53.50;;;27.23;38.26;94900.50;5014157;28;20231;-78
2022/07/25 08:05:42;;;;;;;0.30;0.30;;;26.80;53.20;;;27.31;38.16;94904.44;4998890;28;20231;-78
2022/07/25 08:08:14;;;;;;;0.30;0.30;;;26.80;53.10;;;27.36;38.17;94898.94;4998145;28;20203;-79
2022/07/25 08:10:45;;;;;;;0.30;0.30;;;26.90;53.10;;;27.46;38.08;94895.28;4998017;28;20216;-78
2022/07/25 08:13:15;;;;;;;0.25;0.25;;;27.00;53.00;;;27.52;37.72;94898.66;4998564;28;20300;-79
2022/07/25 08:15:45;;;;;;;0.30;0.30;;;27.10;52.90;;;27.60;37.35;94900.63;5013545;28;20226;-78
2022/07/25 08:18:13;;;;;;;0.30;0.30;;;27.20;52.60;;;27.69;37.62;94893.47;5014442;28;20208;-78
2022/07/25 08:20:45;;;;;;;0.30;0.30;;;27.30;52.70;;;27.74;37.33;94890.66;4998491;28;20591;-77
2022/07/25 08:23:13;;;;;;;0.30;0.30;;;27.40;52.40;;;27.79;37.39;94893.25;5014237;28;20230;-78
2022/07/25 08:25:41;;;;;;;0.30;0.30;;;27.40;52.00;;;27.87;37.50;94891.75;5014409;28;20224;-79
2022/07/25 08:28:11;;;;;;;0.30;0.30;;;27.50;52.30;;;27.94;37.23;94886.72;5011344;28;20205;-78
2022/07/25 08:30:40;;;;;;;0.30;0.30;;;27.50;51.80;;;28.02;37.39;94882.50;5022822;28;20211;-79
2022/07/25 08:33:11;;;;;;;0.30;0.30;;;27.60;52.00;;;28.09;36.94;94876.75;4998136;28;20217;-79
2022/07/25 08:35:44;;;;;;;0.20;0.20;;;27.70;51.90;;;28.14;36.84;94873.09;5005698;28;20229;-80
2022/07/25 08:38:11;;;;;;;0.30;0.30;;;27.70;51.60;;;28.23;37.29;94874.78;5016003;28;20571;-79
2022/07/25 08:40:38;;;;;;;0.30;0.30;;;27.80;51.70;;;28.31;36.89;94870.56;5015769;28;20234;-79
2022/07/25 08:43:05;;;;;;;0.30;0.30;;;27.90;51.60;;;28.37;37.08;94863.13;5022003;28;20312;-80
2022/07/25 08:45:32;;;;;;;0.25;0.25;;;28.00;51.70;;;28.43;36.55;94867.31;5014132;28;20229;-78
2022/07/25 08:48:00;;;;;;;0.30;0.30;;;28.00;51.40;;;28.50;36.77;94872.28;5030180;28;20209;-78
2022/07/25 08:50:28;;;;;;;0.30;0.30;;;28.10;51.40;;;28.56;36.46;94869.16;5009706;28;20205;-79
2022/07/25 08:52:56;;;;;;;0.22;0.22;;;28.20;50.90;;;28.61;36.59;94860.13;5002427;28;20218;-78
2022/07/25 08:55:45;;;;;;;0.30;0.30;;;28.20;51.00;;;28.68;36.79;94863.22;5000616;28;20229;-78
2022/07/25 08:58:15;;;;;;;0.20;0.20;;;28.30;50.90;;;28.73;36.35;94860.41;5006952;28;20201;-78
2022/07/25 09:00:43;;;;;;;0.30;0.30;;;28.40;50.80;;;28.80;35.91;94854.56;5015448;28;20225;-77
2022/07/25 09:03:10;;;;;;;0.30;0.30;;;28.40;50.80;;;28.86;35.97;94852.53;5012677;28;20243;-77
2022/07/25 09:05:39;;;;;;;0.20;0.20;;;28.50;50.60;;;28.91;35.80;94852.38;5008698;28;20312;-78
2022/07/25 09:08:17;;;;;;;0.30;0.30;;;28.50;50.30;;;28.96;36.09;94846.84;5012921;28;20797;-78
2022/07/25 09:10:50;;;;;;;0.25;0.25;;;28.60;50.20;;;29.05;35.92;94847.69;5026737;28;20233;-78
2022/07/25 09:13:21;;;;;;;0.30;0.30;;;28.70;50.60;;;29.10;35.48;94841.34;5017051;28;20265;-78
2022/07/25 09:15:52;;;;;;;0.20;0.20;;;28.70;49.90;;;29.15;35.93;94838.50;5033214;28;20224;-79
2022/07/25 09:18:26;;;;;;;0.30;0.30;;;28.80;50.20;;;29.20;35.77;94843.78;4992414;28;20213;-80
2022/07/25 09:20:58;;;;;;;0.32;0.32;;;28.80;50.20;;;29.28;35.82;94834.09;5033051;28;20251;-78
2022/07/25 09:23:52;;;;;;;0.30;0.30;;;28.90;50.00;;;29.31;36.01;94825.41;5015480;28;20768;-78
2022/07/25 09:26:19;;;;;;;0.30;0.30;;;29.00;50.50;;;29.42;35.65;94828.63;5032428;28;20211;-78
2022/07/25 09:28:52;;;;;;;0.30;0.30;;;29.00;50.10;;;29.50;36.11;94832.44;4991522;28;20213;-80
2022/07/25 09:31:19;;;;;;;0.30;0.30;;;29.10;49.90;;;29.56;35.14;94836.56;4998353;28;20249;-79
2022/07/25 09:33:55;;;;;;;0.30;0.30;;;29.20;49.70;;;29.61;34.93;94839.13;4996371;28;20206;-79
2022/07/25 09:36:22;;;;;;;0.30;0.30;;;29.20;49.30;;;29.63;35.05;94831.50;5013094;28;20240;-78
2022/07/25 09:39:01;;;;;;;0.30;0.30;;;29.30;49.40;;;29.68;35.67;94825.94;5012627;28;20198;-80
2022/07/25 09:41:39;;;;;;;0.30;0.30;;;29.40;49.70;;;29.74;35.66;94834.72;5013135;28;20308;-78
2022/07/25 09:44:21;;;;;;;0.30;0.30;;;29.40;49.50;;;29.79;34.86;94826.44;4996574;28;20218;-79
2022/07/25 09:46:49;;;;;;;0.30;0.30;;;29.40;49.20;;;29.84;34.74;94822.78;5012317;28;20245;-79
2022/07/25 09:49:16;;;;;;;0.30;0.30;;;29.50;49.20;;;29.89;34.73;94827.25;5007821;28;20209;-79
2022/07/25 09:51:44;;;;;;;0.20;0.20;;;29.60;49.30;;;29.93;34.77;94825.53;5026733;28;20231;-79
2022/07/25 09:54:11;;;;;;;0.20;0.20;;;29.60;49.00;;;29.97;35.29;94821.88;4995693;28;20199;-79
2022/07/25 09:56:38;;;;;;;0.20;0.20;;;29.60;48.80;;;30.00;34.56;94833.94;5019182;28;20218;-79
2022/07/25 09:59:06;;;;;;;0.30;0.30;;;29.70;48.60;;;30.03;34.97;94817.88;5028575;28;20209;-80
2022/07/25 10:02:07;;;;;;;0.35;0.35;;;29.70;48.50;;;30.07;35.05;94819.97;5012721;28;20285;-79
2022/07/25 10:05:20;;;;;;;0.20;0.20;;;29.70;48.80;;;30.12;35.21;94815.19;5012781;28;20222;-79
2022/07/25 10:07:50;;;;;;;0.20;0.20;;;29.80;48.90;;;30.17;34.92;94815.00;5004280;28;20210;-79
2022/07/25 10:10:29;;;;;;;0.30;0.30;;;29.80;48.20;;;30.22;34.83;94807.84;5031137;28;20196;-79
2022/07/25 10:13:16;;;;;;;0.22;0.22;;;29.90;48.50;;;30.24;34.15;94816.47;5032340;28;20285;-79
2022/07/25 10:15:51;;;;;;;0.30;0.30;;;30.00;48.30;;;30.27;34.83;94811.19;5018489;28;20261;-78
2022/07/25 10:18:24;;;;;;;0.35;0.35;;;29.90;48.10;;;30.32;33.94;94808.31;4996174;28;20200;-79
2022/07/25 10:21:10;;;;;;;0.30;0.30;;;30.00;47.70;;;30.38;34.96;94800.81;5011344;28;20210;-79
2022/07/25 10:24:06;;;;;;;0.38;0.38;;;30.10;48.30;;;30.46;34.95;94799.22;4997356;28;20315;-80
2022/07/25 10:26:38;;;;;;;0.30;0.30;;;30.10;48.00;;;30.54;34.25;94803.06;4995021;28;20706;-79
2022/07/25 10:29:11;;;;;;;0.30;0.30;;;30.10;48.00;;;30.63;34.44;94787.59;4996108;28;20204;-78
2022/07/25 10:31:44;;;;;;;0.20;0.20;;;30.20;47.60;;;30.70;34.56;94787.88;4995703;28;20278;-79